createdAt,value
2022-10-01T00:02:17.313Z,85.24
2022-10-01T00:04:47.406Z,85.44
2022-10-01T00:07:18.637Z,86.27
2022-10-01T00:09:48.504Z,87.44
2022-10-01T00:12:18.576Z,86.78
2022-10-01T00:14:48.689Z,85.83
2022-10-01T00:17:21.400Z,86.08
2022-10-01T00:19:51.474Z,85.36
2022-10-01T00:22:21.697Z,85.09
2022-10-01T00:24:51.831Z,84.98
2022-10-01T00:27:21.961Z,85.11
2022-10-01T00:29:52.058Z,84.60
2022-10-01T00:32:25.501Z,84.29
2022-10-01T00:34:55.924Z,84.19
2022-10-01T00:37:26.126Z,83.96
2022-10-01T00:39:56.258Z,83.66
2022-10-01T00:42:29.777Z,83.83
2022-10-01T00:45:01.721Z,83.86
2022-10-01T00:47:40.175Z,83.29
2022-10-01T00:50:18.070Z,83.15
2022-10-01T00:52:54.990Z,83.31
2022-10-01T00:55:30.031Z,82.92
2022-10-01T00:58:00.678Z,82.52
2022-10-01T01:00:30.871Z,82.83
2022-10-01T01:03:03.629Z,82.40
2022-10-01T01:05:33.738Z,81.53
2022-10-01T01:08:04.688Z,81.35
2022-10-01T01:10:49.547Z,80.74
2022-10-01T01:13:29.244Z,80.40
2022-10-01T01:16:08.326Z,79.99
2022-10-01T01:18:48.953Z,80.05
2022-10-01T01:21:27.798Z,79.78
2022-10-01T01:24:46.641Z,80.05
2022-10-01T01:27:33.338Z,79.78
2022-10-01T01:30:11.048Z,79.02
2022-10-01T01:32:53.718Z,79.23
2022-10-01T01:35:32.302Z,79.02
2022-10-01T01:38:08.163Z,79.03
2022-10-01T01:40:41.331Z,78.97
2022-10-01T01:43:20.633Z,78.79
2022-10-01T01:45:56.848Z,78.70
2022-10-01T01:48:27.721Z,78.30
2022-10-01T01:51:05.788Z,78.05
2022-10-01T01:53:35.923Z,77.58
2022-10-01T01:56:06.117Z,76.74
2022-10-01T01:58:37.651Z,76.78
2022-10-01T02:01:10.880Z,76.60
2022-10-01T02:03:41.935Z,76.27
2022-10-01T02:06:20.040Z,75.68
2022-10-01T02:08:54.524Z,75.86
2022-10-01T02:11:32.617Z,76.15
2022-10-01T02:14:13.901Z,74.03
2022-10-01T02:16:51.118Z,73.70
2022-10-01T02:19:31.438Z,73.20
2022-10-01T02:22:05.696Z,72.81
2022-10-01T02:24:42.740Z,72.72
2022-10-01T02:27:21.015Z,72.08
2022-10-01T02:29:54.008Z,71.63
2022-10-01T02:32:26.969Z,71.62
2022-10-01T02:34:58.137Z,71.42
2022-10-01T02:37:29.341Z,71.03
2022-10-01T02:40:01.021Z,71.21
2022-10-01T02:42:33.138Z,71.26
2022-10-01T02:45:06.183Z,71.38
2022-10-01T02:47:43.737Z,71.31
2022-10-01T02:50:15.885Z,71.71
2022-10-01T02:52:53.169Z,72.37
2022-10-01T02:55:29.129Z,72.75
2022-10-01T02:57:57.641Z,72.92
2022-10-01T03:00:28.830Z,72.38
2022-10-01T03:03:01.680Z,72.82
2022-10-01T03:05:31.812Z,73.00
2022-10-01T03:08:01.891Z,73.68
2022-10-01T03:10:31.977Z,73.95
2022-10-01T03:13:02.214Z,74.21
2022-10-01T03:15:32.494Z,74.44
2022-10-01T03:18:05.284Z,74.79
2022-10-01T03:20:35.305Z,75.29
2022-10-01T03:23:05.442Z,75.84
2022-10-01T03:25:36.477Z,76.13
2022-10-01T03:28:06.709Z,76.70
2022-10-01T03:30:36.822Z,77.55
2022-10-01T03:33:09.552Z,77.94
2022-10-01T03:35:39.642Z,77.71
2022-10-01T03:38:09.834Z,77.44
2022-10-01T03:40:40.213Z,77.49
2022-10-01T03:43:10.319Z,77.21
2022-10-01T03:45:40.437Z,77.17
2022-10-01T03:48:13.167Z,76.89
2022-10-01T03:50:43.251Z,76.70
2022-10-01T03:53:13.336Z,76.73
2022-10-01T03:55:43.463Z,76.83
2022-10-01T03:58:13.535Z,76.94
2022-10-01T04:00:44.297Z,77.44
2022-10-01T04:03:17.292Z,77.34
2022-10-01T04:05:48.572Z,77.44
2022-10-01T04:08:24.066Z,77.44
2022-10-01T04:10:54.827Z,77.67
2022-10-01T04:13:25.006Z,78.01
2022-10-01T04:15:55.068Z,78.46
2022-10-01T04:18:27.825Z,79.25
2022-10-01T04:20:58.102Z,79.28
2022-10-01T04:23:28.427Z,79.23
2022-10-01T04:26:02.747Z,79.15
2022-10-01T04:28:34.089Z,78.80
2022-10-01T04:31:16.780Z,78.67
2022-10-01T04:33:49.594Z,78.33
2022-10-01T04:36:19.796Z,78.46
2022-10-01T04:38:49.950Z,78.47
2022-10-01T04:41:20.700Z,78.62
2022-10-01T04:43:51.336Z,78.62
2022-10-01T04:46:21.579Z,78.43
2022-10-01T04:48:54.499Z,77.98
2022-10-01T04:51:24.708Z,78.13
2022-10-01T04:53:55.702Z,78.68
2022-10-01T04:56:25.531Z,78.85
2022-10-01T04:58:55.670Z,79.17
2022-10-01T05:01:25.797Z,78.43
2022-10-01T05:03:58.533Z,78.27
2022-10-01T05:06:28.632Z,78.05
2022-10-01T05:08:58.709Z,78.03
2022-10-01T05:11:29.004Z,77.83
2022-10-01T05:13:59.245Z,77.82
2022-10-01T05:16:29.429Z,77.80
2022-10-01T05:19:02.177Z,78.35
2022-10-01T05:21:32.640Z,78.07
2022-10-01T05:24:03.647Z,78.11
2022-10-01T05:26:37.222Z,77.76
2022-10-01T05:29:07.464Z,77.87
2022-10-01T05:31:38.079Z,77.72
2022-10-01T05:34:11.862Z,77.54
2022-10-01T05:36:41.958Z,77.49
2022-10-01T05:39:12.633Z,78.03
2022-10-01T05:41:42.779Z,77.59
2022-10-01T05:44:12.868Z,76.63
2022-10-01T05:46:43.790Z,75.72
2022-10-01T05:49:17.715Z,75.42
2022-10-01T05:51:48.001Z,75.55
2022-10-01T05:54:19.708Z,75.85
2022-10-01T05:56:49.739Z,75.96
2022-10-01T05:59:19.902Z,75.38
2022-10-01T06:01:50.081Z,74.94
2022-10-01T06:04:22.842Z,74.31
2022-10-01T06:06:53.029Z,74.23
2022-10-01T06:09:23.086Z,73.84
2022-10-01T06:11:53.290Z,73.61
2022-10-01T06:14:23.364Z,73.12
2022-10-01T06:16:56.826Z,73.11
2022-10-01T06:19:29.595Z,73.06
2022-10-01T06:21:59.795Z,72.98
2022-10-01T06:24:30.345Z,72.95
2022-10-01T06:27:00.557Z,73.13
2022-10-01T06:29:30.644Z,72.66
2022-10-01T06:32:00.741Z,72.76
2022-10-01T06:34:33.549Z,72.49
2022-10-01T06:37:03.764Z,71.74
2022-10-01T06:39:36.887Z,72.12
2022-10-01T06:42:07.156Z,71.86
2022-10-01T06:44:37.211Z,71.68
2022-10-01T06:47:07.369Z,71.39
2022-10-01T06:49:40.063Z,70.68
2022-10-01T06:52:23.888Z,70.52
2022-10-01T06:54:54.036Z,70.05
2022-10-01T06:57:24.140Z,69.83
2022-10-01T06:59:54.541Z,69.86
2022-10-01T07:02:29.128Z,70.07
2022-10-01T07:05:02.357Z,69.94
2022-10-01T07:07:33.376Z,69.89
2022-10-01T07:10:03.311Z,69.92
2022-10-01T07:12:33.701Z,70.17
2022-10-01T07:15:04.946Z,70.12
2022-10-01T07:17:35.296Z,69.33
2022-10-01T07:20:09.805Z,69.48
2022-10-01T07:22:39.964Z,69.56
2022-10-01T07:25:11.537Z,69.85
2022-10-01T07:27:41.900Z,68.91
2022-10-01T07:30:13.735Z,69.14
2022-10-01T07:32:47.701Z,68.91
2022-10-01T07:35:20.975Z,68.54
2022-10-01T07:37:52.067Z,68.80
2022-10-01T07:40:22.267Z,68.40
2022-10-01T07:42:57.738Z,68.52
2022-10-01T07:45:28.887Z,68.28
2022-10-01T07:48:01.841Z,68.16
2022-10-01T07:50:34.592Z,68.41
2022-10-01T07:53:04.822Z,67.86
2022-10-01T07:55:34.998Z,68.35
2022-10-01T07:58:05.125Z,68.43
2022-10-01T08:00:36.802Z,68.49
2022-10-01T08:03:07.533Z,68.92
2022-10-01T08:05:40.339Z,68.53
2022-10-01T08:08:11.501Z,69.00
2022-10-01T08:10:42.943Z,69.32
2022-10-01T08:13:17.213Z,69.05
2022-10-01T08:15:50.692Z,69.38
2022-10-01T08:18:21.042Z,68.96
2022-10-01T08:20:54.045Z,68.89
2022-10-01T08:23:24.553Z,69.23
2022-10-01T08:25:54.663Z,69.26
2022-10-01T08:28:24.924Z,68.19
2022-10-01T08:30:56.199Z,69.08
2022-10-01T08:33:26.648Z,68.90
2022-10-01T08:36:04.128Z,67.66
2022-10-01T08:38:34.248Z,67.96
2022-10-01T08:41:12.641Z,67.57
2022-10-01T08:43:45.219Z,66.07
2022-10-01T08:46:20.892Z,66.36
2022-10-01T08:49:01.410Z,65.69
2022-10-01T08:51:40.978Z,65.04
2022-10-01T08:54:31.121Z,64.54
2022-10-01T08:57:04.689Z,64.24
2022-10-01T08:59:44.282Z,63.05
2022-10-01T09:02:28.377Z,62.46
2022-10-01T09:05:02.511Z,62.28
2022-10-01T09:07:54.063Z,61.45
2022-10-01T09:10:42.408Z,61.23
2022-10-01T09:13:50.047Z,60.87
2022-10-01T09:16:28.703Z,60.28
2022-10-01T09:19:12.557Z,60.55
2022-10-01T09:21:59.041Z,59.32
2022-10-01T09:24:45.894Z,59.98
2022-10-01T09:27:20.618Z,59.02
2022-10-01T09:29:55.678Z,59.11
2022-10-01T09:32:30.460Z,59.03
2022-10-01T09:35:05.973Z,59.21
2022-10-01T09:37:45.109Z,59.09
2022-10-01T09:40:28.081Z,60.15
2022-10-01T09:42:58.299Z,61.08
2022-10-01T09:45:28.804Z,62.13
2022-10-01T09:48:07.785Z,63.29
2022-10-01T09:50:44.410Z,64.04
2022-10-01T09:53:23.440Z,64.64
2022-10-01T09:56:00.675Z,64.90
2022-10-01T09:58:33.227Z,65.84
2022-10-01T10:01:04.223Z,66.67
2022-10-01T10:03:34.840Z,68.22
2022-10-01T10:06:05.234Z,69.19
2022-10-01T10:08:39.594Z,71.85
2022-10-01T10:11:23.199Z,72.46
2022-10-01T10:13:56.177Z,73.57
2022-10-01T10:16:29.925Z,74.85
2022-10-01T10:19:03.852Z,76.43
2022-10-01T10:21:37.452Z,77.49
2022-10-01T10:24:21.555Z,79.52
2022-10-01T10:27:00.208Z,79.41
2022-10-01T10:29:33.333Z,80.58
2022-10-01T10:32:10.145Z,82.88
2022-10-01T10:34:42.106Z,83.53
2022-10-01T10:37:19.084Z,82.94
2022-10-01T10:39:53.405Z,82.04
2022-10-01T10:42:26.895Z,83.79
2022-10-01T10:45:00.734Z,84.17
2022-10-01T10:47:33.336Z,84.92
2022-10-01T10:50:06.936Z,84.69
2022-10-01T10:52:44.949Z,84.84
2022-10-01T10:55:32.148Z,86.63
2022-10-01T10:58:14.644Z,85.11
2022-10-01T11:00:51.526Z,86.68
2022-10-01T11:03:26.025Z,86.85
2022-10-01T11:05:57.139Z,89.91
2022-10-01T11:08:30.634Z,90.76
2022-10-01T11:11:13.406Z,90.36
2022-10-01T11:14:12.406Z,92.26
2022-10-01T11:17:15.649Z,93.17
2022-10-01T11:20:07.867Z,94.73
2022-10-01T11:22:55.255Z,94.96
2022-10-01T11:25:44.726Z,95.97
2022-10-01T11:28:35.664Z,96.88
2022-10-01T11:31:22.669Z,97.28
2022-10-01T11:34:08.998Z,97.06
2022-10-01T11:36:50.014Z,97.48
2022-10-01T11:39:28.179Z,98.39
2022-10-01T11:42:04.679Z,97.94
2022-10-01T11:44:40.111Z,96.54
2022-10-01T11:47:20.843Z,97.90
2022-10-01T11:49:59.732Z,97.47
2022-10-01T11:52:40.089Z,98.25
2022-10-01T11:55:34.699Z,96.15
2022-10-01T11:58:27.042Z,96.70
2022-10-01T12:01:06.595Z,95.92
2022-10-01T12:03:53.637Z,98.22
2022-10-01T12:06:33.914Z,98.44
2022-10-01T12:09:15.185Z,99.02
2022-10-01T12:11:52.902Z,98.46
2022-10-01T12:14:31.515Z,100.00
2022-10-01T12:17:09.957Z,100.00
2022-10-01T12:19:50.722Z,100.00
2022-10-01T12:22:28.469Z,100.00
2022-10-01T12:24:58.756Z,100.00
2022-10-01T12:27:47.974Z,100.00
2022-10-01T12:30:23.038Z,100.00
2022-10-01T12:33:16.737Z,100.00
2022-10-01T12:36:03.333Z,100.00
2022-10-01T12:38:50.679Z,100.00
2022-10-01T12:41:34.261Z,100.00
2022-10-01T12:44:26.599Z,100.00
2022-10-01T12:47:12.658Z,100.00
2022-10-01T12:49:53.295Z,100.00
2022-10-01T12:52:37.220Z,100.00
2022-10-01T12:55:34.478Z,100.00
2022-10-01T12:58:14.236Z,100.00
2022-10-01T13:00:54.133Z,100.00
2022-10-01T13:03:50.481Z,100.00
2022-10-01T13:06:31.119Z,100.00
2022-10-01T13:09:13.323Z,100.00
2022-10-01T13:11:59.097Z,100.00
2022-10-01T13:14:29.601Z,100.00
2022-10-01T13:17:05.041Z,100.00
2022-10-01T13:19:45.022Z,100.00
2022-10-01T13:22:24.907Z,99.21
2022-10-01T13:25:06.672Z,99.36
2022-10-01T13:27:42.342Z,98.49
2022-10-01T13:30:23.408Z,97.99
2022-10-01T13:32:55.635Z,95.12
2022-10-01T13:35:35.552Z,94.14
2022-10-01T13:38:17.690Z,95.12
2022-10-01T13:41:01.881Z,93.82
2022-10-01T13:43:33.800Z,90.39
2022-10-01T13:46:10.971Z,84.37
2022-10-01T13:48:50.602Z,84.11
2022-10-01T13:51:20.899Z,81.95
2022-10-01T13:54:00.767Z,80.41
2022-10-01T13:56:37.428Z,80.33
2022-10-01T13:59:28.820Z,81.67
2022-10-01T14:01:58.971Z,81.58
2022-10-01T14:04:39.439Z,80.57
2022-10-01T14:07:21.673Z,78.36
2022-10-01T14:09:55.239Z,80.86
2022-10-01T14:12:46.597Z,82.11
2022-10-01T14:15:33.595Z,82.88
2022-10-01T14:18:09.676Z,85.04
2022-10-01T14:20:57.695Z,82.93
2022-10-01T14:23:36.634Z,82.63
2022-10-01T14:26:18.057Z,84.26
2022-10-01T14:29:03.295Z,85.96
2022-10-01T14:31:50.896Z,87.67
2022-10-01T14:34:56.714Z,87.61
2022-10-01T14:37:27.490Z,89.37
2022-10-01T14:40:05.473Z,90.62
2022-10-01T14:42:35.679Z,91.06
2022-10-01T14:45:19.062Z,91.26
2022-10-01T14:47:50.235Z,92.90
2022-10-01T14:50:24.119Z,92.88
2022-10-01T14:52:55.148Z,92.87
2022-10-01T14:55:26.217Z,93.16
2022-10-01T14:57:59.257Z,93.30
2022-10-01T15:00:35.650Z,93.76
2022-10-01T15:03:15.713Z,93.99
2022-10-01T15:05:49.167Z,95.00
2022-10-01T15:08:23.763Z,94.72
2022-10-01T15:10:59.284Z,94.95
2022-10-01T15:13:35.057Z,95.96
2022-10-01T15:16:08.875Z,96.37
2022-10-01T15:18:39.130Z,96.40
2022-10-01T15:21:10.481Z,96.98
2022-10-01T15:23:43.011Z,97.21
2022-10-01T15:26:20.709Z,97.69
2022-10-01T15:28:52.855Z,98.74
2022-10-01T15:31:25.944Z,98.38
2022-10-01T15:34:01.248Z,99.15
2022-10-01T15:36:32.353Z,98.40
2022-10-01T15:39:30.110Z,97.83
2022-10-01T15:42:02.010Z,97.84
2022-10-01T15:44:46.654Z,97.13
2022-10-01T15:47:35.926Z,97.40
2022-10-01T15:50:21.121Z,97.73
2022-10-01T15:53:06.664Z,97.26
2022-10-01T15:55:45.019Z,97.63
2022-10-01T15:58:22.202Z,97.45
2022-10-01T16:01:04.854Z,96.99
2022-10-01T16:03:40.823Z,96.56
2022-10-01T16:06:26.505Z,97.86
2022-10-01T16:09:06.305Z,98.60
2022-10-01T16:11:55.348Z,98.75
2022-10-01T16:14:40.767Z,98.96
2022-10-01T16:17:34.191Z,99.75
2022-10-01T16:20:45.609Z,100.00
2022-10-01T16:23:37.340Z,100.00
2022-10-01T16:26:23.408Z,100.00
2022-10-01T16:28:58.143Z,100.00
2022-10-01T16:31:29.388Z,100.00
2022-10-01T16:33:59.721Z,100.00
2022-10-01T16:36:35.961Z,100.00
2022-10-01T16:39:06.901Z,100.00
2022-10-01T16:41:38.426Z,100.00
2022-10-01T16:44:16.375Z,100.00
2022-10-01T16:46:46.721Z,100.00
2022-10-01T16:49:18.754Z,100.00
2022-10-01T16:51:56.222Z,100.00
2022-10-01T16:54:29.579Z,100.00
2022-10-01T16:57:02.133Z,100.00
2022-10-01T16:59:33.960Z,100.00
2022-10-01T17:02:04.032Z,100.00
2022-10-01T17:04:34.481Z,100.00
2022-10-01T17:07:09.430Z,100.00
2022-10-01T17:09:41.260Z,100.00
2022-10-01T17:12:12.696Z,100.00
2022-10-01T17:14:43.205Z,100.00
2022-10-01T17:17:13.646Z,100.00
2022-10-01T17:19:43.924Z,100.00
2022-10-01T17:22:16.781Z,100.00
2022-10-01T17:24:46.965Z,100.00
2022-10-01T17:27:17.292Z,100.00
2022-10-01T17:29:51.087Z,100.00
2022-10-01T17:32:24.210Z,100.00
2022-10-01T17:34:54.660Z,100.00
2022-10-01T17:37:27.683Z,100.00
2022-10-01T17:39:58.077Z,100.00
2022-10-01T17:42:28.422Z,100.00
2022-10-01T17:44:58.628Z,100.00
2022-10-01T17:47:29.135Z,100.00
2022-10-01T17:49:59.311Z,100.00
2022-10-01T17:52:34.291Z,100.00
2022-10-01T17:55:04.833Z,100.00
2022-10-01T17:57:35.266Z,100.00
2022-10-01T18:00:06.548Z,100.00
2022-10-01T18:02:45.244Z,100.00
2022-10-01T18:05:17.345Z,100.00
2022-10-01T18:07:50.241Z,100.00
2022-10-01T18:10:20.766Z,100.00
2022-10-01T18:12:51.383Z,100.00
2022-10-01T18:15:25.167Z,100.00
2022-10-01T18:18:53.575Z,100.00
2022-10-01T18:20:45.805Z,100.00
2022-10-01T18:23:18.754Z,100.00
2022-10-01T18:25:48.990Z,100.00
2022-10-01T18:28:19.202Z,100.00
2022-10-01T18:30:49.823Z,100.00
2022-10-01T18:33:20.087Z,100.00
2022-10-01T18:35:57.670Z,100.00
2022-10-01T18:38:33.416Z,100.00
2022-10-01T18:41:11.378Z,100.00
2022-10-01T18:43:43.777Z,100.00
2022-10-01T18:46:24.649Z,100.00
2022-10-01T18:49:13.999Z,100.00
2022-10-01T18:51:58.837Z,100.00
2022-10-01T18:54:54.805Z,100.00
2022-10-01T18:57:52.110Z,100.00
2022-10-01T19:00:24.477Z,100.00
2022-10-01T19:03:21.866Z,100.00
2022-10-01T19:06:22.253Z,100.00
2022-10-01T19:09:22.123Z,100.00
2022-10-01T19:12:06.423Z,100.00
2022-10-01T19:14:51.189Z,100.00
2022-10-01T19:17:39.377Z,100.00
2022-10-01T19:20:31.833Z,100.00
2022-10-01T19:23:17.125Z,100.00
2022-10-01T19:25:53.675Z,100.00
2022-10-01T19:28:43.035Z,100.00
2022-10-01T19:31:23.804Z,100.00
2022-10-01T19:34:02.851Z,100.00
2022-10-01T19:36:40.030Z,100.00
2022-10-01T19:39:22.067Z,100.00
2022-10-01T19:41:58.468Z,100.00
2022-10-01T19:44:40.264Z,100.00
2022-10-01T19:47:31.923Z,100.00
2022-10-01T19:50:11.096Z,100.00
2022-10-01T19:52:45.909Z,100.00
2022-10-01T19:55:20.466Z,100.00
2022-10-01T19:57:51.160Z,100.00
2022-10-01T20:00:26.198Z,100.00
2022-10-01T20:03:05.298Z,100.00
2022-10-01T20:05:47.176Z,100.00
2022-10-01T20:08:29.060Z,100.00
2022-10-01T20:11:10.783Z,100.00
2022-10-01T20:14:35.437Z,100.00
2022-10-01T20:17:22.237Z,100.00
2022-10-01T20:20:04.163Z,100.00
2022-10-01T20:22:45.353Z,100.00
2022-10-01T20:25:29.193Z,100.00
2022-10-01T20:28:09.556Z,100.00
2022-10-01T20:30:53.050Z,100.00
2022-10-01T20:33:37.694Z,100.00
2022-10-01T20:36:19.561Z,100.00
2022-10-01T20:38:56.962Z,100.00
2022-10-01T20:41:31.479Z,100.00
2022-10-01T20:44:09.837Z,100.00
2022-10-01T20:46:44.654Z,100.00
2022-10-01T20:49:29.843Z,100.00
2022-10-01T20:52:09.734Z,100.00
2022-10-01T20:54:47.559Z,100.00
2022-10-01T20:57:27.528Z,100.00
2022-10-01T21:00:00.126Z,100.00
2022-10-01T21:02:42.832Z,100.00
2022-10-01T21:05:22.278Z,100.00
2022-10-01T21:07:58.446Z,100.00
2022-10-01T21:10:37.925Z,100.00
2022-10-01T21:13:26.105Z,100.00
2022-10-01T21:16:08.547Z,100.00
2022-10-01T21:18:54.428Z,100.00
2022-10-01T21:21:41.340Z,100.00
2022-10-01T21:24:32.384Z,100.00
2022-10-01T21:27:17.305Z,100.00
2022-10-01T21:30:15.942Z,100.00
2022-10-01T21:33:12.391Z,100.00
2022-10-01T21:35:55.047Z,100.00
2022-10-01T21:38:34.512Z,100.00
2022-10-01T21:41:21.983Z,100.00
2022-10-01T21:44:17.752Z,100.00
2022-10-01T21:46:58.609Z,100.00
2022-10-01T21:49:45.120Z,100.00
2022-10-01T21:52:32.284Z,100.00
2022-10-01T21:55:30.232Z,100.00
2022-10-01T21:58:17.422Z,100.00
2022-10-01T22:01:00.577Z,100.00
2022-10-01T22:03:39.069Z,100.00
2022-10-01T22:06:19.409Z,100.00
2022-10-01T22:09:04.400Z,100.00
2022-10-01T22:11:42.501Z,100.00
2022-10-01T22:14:19.304Z,100.00
2022-10-01T22:16:55.089Z,100.00
2022-10-01T22:19:31.934Z,100.00
2022-10-01T22:22:11.046Z,100.00
2022-10-01T22:24:46.798Z,100.00
2022-10-01T22:27:24.870Z,100.00
2022-10-01T22:30:00.721Z,100.00
2022-10-01T22:32:43.671Z,100.00
2022-10-01T22:35:23.658Z,100.00
2022-10-01T22:37:58.167Z,100.00
2022-10-01T22:40:33.949Z,100.00
2022-10-01T22:43:13.312Z,100.00
2022-10-01T22:46:05.174Z,100.00
2022-10-01T22:49:01.979Z,100.00
2022-10-01T22:51:54.063Z,100.00
2022-10-01T22:54:49.477Z,100.00
2022-10-01T22:57:41.438Z,100.00
2022-10-01T23:00:17.385Z,100.00
2022-10-01T23:03:02.392Z,100.00
2022-10-01T23:05:53.302Z,100.00
2022-10-01T23:08:34.042Z,100.00
2022-10-01T23:11:15.505Z,100.00
2022-10-01T23:13:59.799Z,100.00
2022-10-01T23:16:46.863Z,100.00
2022-10-01T23:19:34.859Z,100.00
2022-10-01T23:22:14.320Z,100.00
2022-10-01T23:25:04.227Z,100.00
2022-10-01T23:27:45.151Z,100.00
2022-10-01T23:30:18.932Z,100.00
2022-10-01T23:33:28.184Z,100.00
2022-10-01T23:36:08.917Z,100.00
2022-10-01T23:38:59.190Z,100.00
2022-10-01T23:41:37.968Z,100.00
2022-10-01T23:44:16.820Z,100.00
2022-10-01T23:46:52.148Z,100.00
2022-10-01T23:49:31.078Z,100.00
2022-10-01T23:52:12.781Z,100.00
2022-10-01T23:54:51.004Z,100.00
2022-10-01T23:57:26.437Z,100.00
